createdAt,value
2019-01-21T00:00:57.716Z,29.30
2019-01-21T00:03:26.764Z,29.80
2019-01-21T00:05:55.348Z,30.63
2019-01-21T00:08:23.971Z,34.27
2019-01-21T00:10:52.504Z,30.57
2019-01-21T00:13:20.967Z,32.43
2019-01-21T00:15:49.253Z,30.23
2019-01-21T00:18:17.693Z,33.73
2019-01-21T00:20:46.438Z,28.87
2019-01-21T00:23:14.891Z,29.73
2019-01-21T00:25:43.579Z,27.90
2019-01-21T00:28:12.126Z,31.03
2019-01-21T00:30:40.563Z,29.73
2019-01-21T00:33:09.015Z,29.90
2019-01-21T00:35:37.526Z,26.23
2019-01-21T00:38:06.107Z,24.60
2019-01-21T00:40:34.386Z,24.97
2019-01-21T00:43:03.150Z,23.50
2019-01-21T00:45:31.695Z,25.47
2019-01-21T00:48:00.301Z,25.23
2019-01-21T00:50:28.698Z,24.33
2019-01-21T00:52:57.178Z,23.13
2019-01-21T00:55:25.424Z,22.47
2019-01-21T00:57:54.209Z,23.63
2019-01-21T01:00:24.765Z,25.67
2019-01-21T01:02:53.483Z,24.10
2019-01-21T01:05:22.691Z,24.00
2019-01-21T01:07:51.337Z,22.30
2019-01-21T01:10:20.037Z,22.73
2019-01-21T01:12:48.697Z,23.33
2019-01-21T01:15:17.030Z,22.00
2019-01-21T01:17:45.687Z,21.87
2019-01-21T01:20:15.889Z,23.50
2019-01-21T01:22:44.214Z,21.83
2019-01-21T01:25:12.843Z,23.37
2019-01-21T01:27:41.202Z,23.77
2019-01-21T01:30:11.708Z,23.57
2019-01-21T01:32:40.284Z,22.73
2019-01-21T01:35:10.157Z,22.73
2019-01-21T01:37:38.767Z,22.87
2019-01-21T01:40:10.190Z,23.63
2019-01-21T01:42:42.166Z,23.30
2019-01-21T01:45:13.191Z,23.00
2019-01-21T01:47:44.882Z,21.93
2019-01-21T01:50:13.328Z,21.80
2019-01-21T01:52:42.049Z,23.20
2019-01-21T01:55:10.410Z,23.27
2019-01-21T01:57:39.106Z,23.83
2019-01-21T02:00:11.049Z,22.20
2019-01-21T02:02:39.850Z,20.60
2019-01-21T02:05:08.758Z,20.67
2019-01-21T02:07:37.466Z,20.23
2019-01-21T02:10:07.302Z,21.53
2019-01-21T02:12:36.186Z,18.90
2019-01-21T02:15:07.021Z,20.90
2019-01-21T02:17:35.666Z,23.03
2019-01-21T02:20:05.001Z,26.63
2019-01-21T02:22:35.399Z,24.53
2019-01-21T02:25:04.140Z,21.77
2019-01-21T02:28:09.422Z,20.63
2019-01-21T02:31:34.385Z,22.93
2019-01-21T02:34:12.814Z,20.83
2019-01-21T02:37:32.185Z,19.10
2019-01-21T02:41:00.271Z,19.33
2019-01-21T02:44:03.315Z,19.50
2019-01-21T02:46:56.885Z,19.13
2019-01-21T02:50:15.890Z,20.10
2019-01-21T02:53:11.254Z,19.70
2019-01-21T02:56:01.124Z,18.73
2019-01-21T02:58:36.826Z,19.73
2019-01-21T03:01:27.539Z,16.43
2019-01-21T03:04:29.005Z,17.50
2019-01-21T03:07:15.552Z,17.87
2019-01-21T03:10:31.155Z,20.23
2019-01-21T03:13:24.520Z,15.50
2019-01-21T03:16:32.280Z,15.60
2019-01-21T03:19:33.308Z,17.20
2019-01-21T03:22:42.293Z,16.77
2019-01-21T03:25:43.309Z,15.87
2019-01-21T03:28:54.954Z,17.63
2019-01-21T03:31:53.198Z,15.07
2019-01-21T03:34:58.556Z,15.80
2019-01-21T03:38:23.942Z,17.47
2019-01-21T03:41:52.298Z,15.80
2019-01-21T03:44:51.262Z,30.17
2019-01-21T03:47:46.657Z,63.67
2019-01-21T03:51:11.794Z,57.47
2019-01-21T03:54:05.792Z,52.87
2019-01-21T03:56:37.144Z,51.30
2019-01-21T03:59:43.373Z,45.20
2019-01-21T04:02:38.327Z,43.70
2019-01-21T04:05:29.843Z,43.17
2019-01-21T04:08:17.565Z,40.87
2019-01-21T04:11:23.490Z,44.17
2019-01-21T04:14:13.973Z,47.20
2019-01-21T04:17:27.449Z,57.00
2019-01-21T04:20:37.468Z,54.95
2019-01-21T04:23:26.265Z,53.03
2019-01-21T04:26:02.251Z,47.35
2019-01-21T04:28:57.498Z,46.27
2019-01-21T04:31:53.785Z,42.83
2019-01-21T04:34:58.898Z,40.33
2019-01-21T04:38:17.247Z,41.37
2019-01-21T04:41:18.066Z,36.10
2019-01-21T04:43:59.353Z,35.47
2019-01-21T04:47:18.392Z,32.97
2019-01-21T04:50:20.647Z,33.53
2019-01-21T04:53:12.074Z,30.20
2019-01-21T04:56:02.846Z,31.93
2019-01-21T04:59:21.608Z,30.17
2019-01-21T05:02:27.188Z,27.27
2019-01-21T05:05:13.516Z,26.37
2019-01-21T05:07:51.662Z,26.80
2019-01-21T05:10:39.990Z,27.67
2019-01-21T05:13:35.615Z,27.47
2019-01-21T05:16:26.222Z,25.83
2019-01-21T05:19:30.151Z,25.10
2019-01-21T05:22:23.863Z,25.35
2019-01-21T05:25:33.168Z,30.57
2019-01-21T05:28:27.232Z,25.30
2019-01-21T05:31:17.552Z,28.17
2019-01-21T05:34:10.651Z,24.73
2019-01-21T05:37:16.730Z,25.03
2019-01-21T05:40:10.406Z,26.67
2019-01-21T05:43:22.118Z,25.37
2019-01-21T05:46:46.415Z,30.40
2019-01-21T05:50:04.795Z,30.40
2019-01-21T05:53:10.709Z,29.77
2019-01-21T05:56:10.593Z,24.33
2019-01-21T05:59:07.309Z,23.87
2019-01-21T06:02:04.964Z,27.70
2019-01-21T06:04:59.039Z,26.63
2019-01-21T06:07:54.433Z,32.17
2019-01-21T06:10:35.495Z,27.60
2019-01-21T06:13:44.676Z,26.30
2019-01-21T06:16:35.393Z,22.23
2019-01-21T06:19:54.543Z,25.60
2019-01-21T06:22:42.141Z,23.73
2019-01-21T06:25:54.072Z,22.57
2019-01-21T06:28:58.863Z,22.40
2019-01-21T06:31:53.679Z,22.27
2019-01-21T06:34:42.075Z,26.50
2019-01-21T06:37:32.811Z,20.60
2019-01-21T06:40:48.682Z,20.27
2019-01-21T06:43:48.350Z,22.37
2019-01-21T06:47:04.646Z,32.07
2019-01-21T06:50:09.784Z,27.57
2019-01-21T06:53:03.004Z,24.57
2019-01-21T06:56:17.904Z,23.03
2019-01-21T06:59:05.515Z,24.07
2019-01-21T07:02:15.395Z,27.10
2019-01-21T07:05:05.833Z,24.07
2019-01-21T07:07:49.663Z,21.57
2019-01-21T07:10:27.893Z,25.23
2019-01-21T07:13:09.419Z,24.70
2019-01-21T07:15:57.945Z,27.63
2019-01-21T07:19:03.594Z,28.57
2019-01-21T07:21:46.730Z,29.17
2019-01-21T07:24:43.047Z,19.67
2019-01-21T07:28:05.218Z,22.27
2019-01-21T07:31:28.372Z,24.37
2019-01-21T07:34:26.274Z,21.20
2019-01-21T07:37:21.499Z,27.53
2019-01-21T07:40:12.793Z,28.27
2019-01-21T07:43:16.752Z,28.00
2019-01-21T07:45:57.743Z,36.13
2019-01-21T07:49:02.502Z,43.20
2019-01-21T07:52:09.002Z,52.20
2019-01-21T07:54:59.612Z,37.23
2019-01-21T07:57:52.661Z,32.43
2019-01-21T08:00:53.964Z,23.30
2019-01-21T08:04:07.335Z,22.60
2019-01-21T08:07:13.832Z,19.53
2019-01-21T08:10:28.918Z,23.83
2019-01-21T08:13:44.782Z,36.23
2019-01-21T08:16:45.129Z,27.37
2019-01-21T08:20:03.467Z,32.97
2019-01-21T08:23:34.727Z,26.93
2019-01-21T08:26:31.408Z,24.40
2019-01-21T08:29:44.660Z,17.77
2019-01-21T08:32:59.798Z,28.17
2019-01-21T08:35:54.767Z,25.83
2019-01-21T08:38:45.231Z,12.37
2019-01-21T08:41:37.048Z,18.93
2019-01-21T08:45:05.186Z,16.67
2019-01-21T08:48:00.146Z,19.83
2019-01-21T08:50:50.674Z,23.07
2019-01-21T08:53:52.013Z,27.50
2019-01-21T08:56:56.663Z,17.67
2019-01-21T08:59:46.135Z,18.20
2019-01-21T09:02:47.508Z,21.10
2019-01-21T09:05:46.653Z,15.17
2019-01-21T09:08:47.182Z,14.30
2019-01-21T09:11:35.452Z,17.47
2019-01-21T09:14:54.844Z,17.43
2019-01-21T09:17:36.699Z,12.17
2019-01-21T09:20:48.576Z,12.80
2019-01-21T09:23:44.092Z,13.73
2019-01-21T09:26:40.460Z,13.53
2019-01-21T09:29:37.839Z,13.37
2019-01-21T09:32:57.657Z,15.03
2019-01-21T09:36:16.462Z,13.27
2019-01-21T09:39:25.987Z,14.50
2019-01-21T09:42:27.747Z,15.87
2019-01-21T09:45:20.887Z,31.23
2019-01-21T09:47:48.606Z,16.57
2019-01-21T09:50:17.602Z,14.70
2019-01-21T09:52:46.623Z,16.57
2019-01-21T09:55:15.583Z,15.23
2019-01-21T09:57:44.904Z,15.10
2019-01-21T10:00:17.255Z,18.00
2019-01-21T10:02:49.502Z,16.87
2019-01-21T10:05:18.832Z,16.60
2019-01-21T10:08:06.871Z,18.07
2019-01-21T10:10:50.713Z,25.60
2019-01-21T10:13:55.492Z,19.20
2019-01-21T10:17:14.970Z,17.00
2019-01-21T10:20:16.413Z,23.97
2019-01-21T10:22:58.853Z,17.80
2019-01-21T10:25:51.060Z,18.90
2019-01-21T10:28:41.658Z,17.20
2019-01-21T10:31:41.202Z,19.37
2019-01-21T10:34:41.814Z,18.53
2019-01-21T10:37:49.113Z,14.80
2019-01-21T10:40:51.445Z,16.30
2019-01-21T10:43:30.066Z,17.33
2019-01-21T10:46:17.182Z,21.33
2019-01-21T10:49:14.282Z,20.33
2019-01-21T10:52:10.130Z,17.80
2019-01-21T10:54:56.199Z,19.52
2019-01-21T10:58:00.352Z,15.57
2019-01-21T11:00:39.949Z,12.73
2019-01-21T11:03:22.087Z,24.77
2019-01-21T11:06:21.974Z,24.37
2019-01-21T11:09:26.962Z,14.13
2019-01-21T11:12:42.155Z,14.07
2019-01-21T11:15:40.778Z,15.63
2019-01-21T11:18:32.816Z,13.73
2019-01-21T11:21:19.334Z,13.57
2019-01-21T11:24:35.626Z,12.13
2019-01-21T11:27:38.913Z,14.33
2019-01-21T11:30:43.595Z,13.70
2019-01-21T11:34:03.894Z,12.77
2019-01-21T11:36:50.854Z,14.18
2019-01-21T11:40:05.773Z,13.70
2019-01-21T11:43:10.131Z,20.40
2019-01-21T11:46:15.745Z,13.97
2019-01-21T11:49:01.215Z,13.40
2019-01-21T11:52:09.884Z,13.13
2019-01-21T11:54:56.099Z,13.23
2019-01-21T11:57:56.142Z,13.73
2019-01-21T12:00:40.328Z,17.63
2019-01-21T12:03:23.635Z,14.53
2019-01-21T12:06:03.966Z,17.30
2019-01-21T12:09:00.261Z,14.20
2019-01-21T12:11:46.399Z,17.13
2019-01-21T12:14:55.715Z,19.83
2019-01-21T12:18:04.822Z,20.23
2019-01-21T12:21:32.959Z,18.23
2019-01-21T12:24:35.586Z,30.47
2019-01-21T12:27:19.847Z,19.03
2019-01-21T12:30:42.097Z,17.23
2019-01-21T12:33:44.705Z,20.40
2019-01-21T12:36:21.623Z,17.37
2019-01-21T12:39:31.178Z,17.63
2019-01-21T12:42:15.591Z,18.83
2019-01-21T12:45:35.047Z,16.87
2019-01-21T12:48:31.014Z,18.20
2019-01-21T12:51:41.317Z,19.57
2019-01-21T12:54:56.761Z,18.27
2019-01-21T12:58:18.194Z,18.93
2019-01-21T13:01:26.950Z,18.40
2019-01-21T13:04:32.863Z,22.50
2019-01-21T13:07:18.630Z,21.07
2019-01-21T13:10:27.794Z,16.73
2019-01-21T13:13:43.553Z,18.13
2019-01-21T13:16:49.364Z,19.00
2019-01-21T13:19:59.207Z,18.07
2019-01-21T13:23:02.473Z,19.00
2019-01-21T13:26:14.007Z,18.33
2019-01-21T13:29:15.662Z,18.50
2019-01-21T13:32:28.552Z,15.77
2019-01-21T13:35:34.199Z,16.67
2019-01-21T13:38:17.537Z,14.63
2019-01-21T13:41:28.923Z,16.70
2019-01-21T13:44:30.362Z,14.87
2019-01-21T13:47:58.361Z,17.97
2019-01-21T13:51:06.729Z,16.23
2019-01-21T13:54:29.111Z,19.37
2019-01-21T13:57:35.168Z,17.87
2019-01-21T14:00:42.249Z,22.60
2019-01-21T14:03:42.989Z,20.13
2019-01-21T14:06:32.777Z,20.63
2019-01-21T14:09:47.338Z,19.50
2019-01-21T14:13:12.658Z,19.53
2019-01-21T14:16:11.922Z,20.10
2019-01-21T14:18:52.983Z,18.90
2019-01-21T14:21:37.092Z,26.70
2019-01-21T14:24:34.025Z,24.87
2019-01-21T14:27:50.326Z,28.57
2019-01-21T14:30:55.998Z,21.83
2019-01-21T14:33:55.520Z,23.03
2019-01-21T14:37:22.081Z,21.30
2019-01-21T14:40:00.570Z,17.13
2019-01-21T14:42:44.554Z,20.13
2019-01-21T14:45:23.986Z,20.07
2019-01-21T14:48:26.756Z,20.63
2019-01-21T14:51:36.782Z,19.20
2019-01-21T14:54:16.657Z,20.30
2019-01-21T14:57:17.270Z,16.90
2019-01-21T15:00:42.668Z,22.73
2019-01-21T15:03:58.876Z,23.07
2019-01-21T15:06:58.305Z,17.50
2019-01-21T15:10:09.646Z,18.40
2019-01-21T15:13:15.009Z,22.63
2019-01-21T15:16:28.105Z,17.40
2019-01-21T15:19:19.434Z,40.10
2019-01-21T15:22:50.857Z,32.20
2019-01-21T15:25:49.130Z,27.77
2019-01-21T15:29:01.435Z,32.70
2019-01-21T15:32:18.520Z,35.73
2019-01-21T15:35:44.906Z,26.47
2019-01-21T15:38:58.949Z,25.73
2019-01-21T15:42:08.245Z,23.83
2019-01-21T15:45:01.752Z,21.83
2019-01-21T15:48:23.652Z,20.33
2019-01-21T15:50:57.571Z,22.93
2019-01-21T15:54:10.726Z,28.60
2019-01-21T15:57:26.202Z,24.77
2019-01-21T16:00:48.284Z,29.10
2019-01-21T16:03:46.455Z,29.07
2019-01-21T16:06:40.349Z,31.33
2019-01-21T16:09:55.350Z,24.50
2019-01-21T16:12:59.839Z,25.67
2019-01-21T16:16:15.569Z,25.53
2019-01-21T16:19:03.903Z,29.37
2019-01-21T16:22:22.486Z,34.27
2019-01-21T16:25:03.006Z,32.87
2019-01-21T16:27:57.026Z,68.67
2019-01-21T16:30:34.851Z,73.72
2019-01-21T16:34:02.959Z,74.60
2019-01-21T16:36:45.877Z,47.87
2019-01-21T16:40:00.546Z,50.73
2019-01-21T16:42:27.776Z,35.93
2019-01-21T16:44:56.660Z,37.93
2019-01-21T16:47:26.546Z,27.50
2019-01-21T16:49:55.948Z,27.83
2019-01-21T16:52:25.041Z,30.90
2019-01-21T16:54:53.445Z,31.50
2019-01-21T16:57:23.060Z,35.00
2019-01-21T16:59:51.649Z,28.87
2019-01-21T17:02:23.552Z,38.47
2019-01-21T17:04:52.942Z,28.57
2019-01-21T17:07:21.653Z,23.67
2019-01-21T17:09:50.306Z,25.37
2019-01-21T17:12:19.077Z,23.60
2019-01-21T17:14:47.670Z,26.23
2019-01-21T17:17:16.226Z,22.57
2019-01-21T17:19:45.164Z,23.33
2019-01-21T17:22:13.855Z,24.20
2019-01-21T17:24:42.462Z,28.63
2019-01-21T17:27:12.147Z,47.40
2019-01-21T17:29:40.837Z,40.10
2019-01-21T17:32:28.877Z,35.63
2019-01-21T17:35:14.660Z,31.63
2019-01-21T17:37:43.662Z,36.07
2019-01-21T17:40:15.350Z,40.47
2019-01-21T17:42:46.050Z,42.50
2019-01-21T17:45:17.069Z,68.47
2019-01-21T17:47:46.794Z,52.47
2019-01-21T17:50:16.532Z,40.77
2019-01-21T17:52:44.909Z,41.83
2019-01-21T17:55:14.823Z,42.77
2019-01-21T17:57:43.436Z,37.87
2019-01-21T18:00:16.144Z,37.85
2019-01-21T18:02:44.962Z,38.50
2019-01-21T18:05:13.878Z,38.13
2019-01-21T18:07:42.349Z,68.10
2019-01-21T18:10:13.369Z,52.73
2019-01-21T18:12:42.160Z,34.00
2019-01-21T18:15:11.348Z,35.53
2019-01-21T18:17:39.972Z,32.10
2019-01-21T18:20:20.345Z,29.70
2019-01-21T18:22:52.050Z,30.20
2019-01-21T18:25:20.628Z,34.00
2019-01-21T18:27:49.285Z,27.57
2019-01-21T18:30:19.830Z,27.03
2019-01-21T18:32:48.365Z,30.83
2019-01-21T18:35:17.062Z,28.63
2019-01-21T18:37:45.923Z,30.80
2019-01-21T18:40:16.372Z,27.60
2019-01-21T18:42:45.102Z,26.97
2019-01-21T18:45:22.045Z,27.23
2019-01-21T18:47:52.164Z,30.10
2019-01-21T18:50:21.476Z,29.47
2019-01-21T18:52:51.410Z,29.87
2019-01-21T18:55:20.122Z,29.83
2019-01-21T18:57:49.177Z,40.23
2019-01-21T19:00:23.079Z,33.00
2019-01-21T19:02:51.746Z,28.30
2019-01-21T19:05:20.708Z,27.30
2019-01-21T19:07:49.609Z,27.33
2019-01-21T19:10:18.348Z,24.73
2019-01-21T19:12:46.919Z,28.33
2019-01-21T19:15:19.225Z,32.50
2019-01-21T19:17:48.113Z,35.13
2019-01-21T19:20:16.815Z,30.30
2019-01-21T19:22:45.605Z,32.83
2019-01-21T19:25:14.342Z,30.40
2019-01-21T19:27:43.069Z,30.37
2019-01-21T19:30:17.509Z,32.37
2019-01-21T19:32:46.215Z,31.63
2019-01-21T19:35:16.461Z,48.47
2019-01-21T19:37:45.298Z,65.63
2019-01-21T19:40:17.644Z,45.30
2019-01-21T19:42:46.543Z,38.40
2019-01-21T19:45:15.076Z,42.27
2019-01-21T19:47:43.881Z,83.40
2019-01-21T19:50:12.925Z,36.67
2019-01-21T19:52:41.519Z,30.47
2019-01-21T19:55:13.817Z,30.30
2019-01-21T19:57:42.655Z,27.73
2019-01-21T20:00:15.856Z,24.87
2019-01-21T20:02:44.590Z,26.00
2019-01-21T20:05:13.591Z,28.63
2019-01-21T20:07:42.088Z,26.57
2019-01-21T20:10:13.128Z,25.63
2019-01-21T20:12:41.670Z,29.00
2019-01-21T20:15:11.279Z,27.40
2019-01-21T20:17:39.809Z,24.73
2019-01-21T20:20:12.357Z,25.97
2019-01-21T20:22:41.940Z,27.10
2019-01-21T20:25:11.273Z,26.60
2019-01-21T20:27:40.926Z,24.23
2019-01-21T20:30:10.551Z,29.63
2019-01-21T20:32:39.306Z,24.37
2019-01-21T20:35:08.162Z,29.77
2019-01-21T20:37:36.856Z,28.83
2019-01-21T20:40:05.805Z,29.60
2019-01-21T20:42:34.558Z,33.53
2019-01-21T20:45:04.746Z,27.07
2019-01-21T20:47:33.281Z,26.03
2019-01-21T20:50:01.766Z,26.23
2019-01-21T20:52:31.424Z,23.00
2019-01-21T20:54:59.861Z,27.53
2019-01-21T20:57:28.682Z,26.60
2019-01-21T20:59:57.283Z,28.00
2019-01-21T21:02:25.865Z,28.00
2019-01-21T21:04:54.298Z,26.27
2019-01-21T21:07:22.604Z,25.20
2019-01-21T21:09:51.080Z,22.63
2019-01-21T21:12:25.690Z,26.03
2019-01-21T21:14:49.810Z,25.53
2019-01-21T21:17:18.365Z,25.60
2019-01-21T21:19:46.668Z,28.67
2019-01-21T21:22:20.837Z,28.30
2019-01-21T21:24:45.058Z,24.17
2019-01-21T21:27:14.689Z,24.70
2019-01-21T21:29:43.592Z,24.57
2019-01-21T21:32:11.935Z,26.47
2019-01-21T21:34:41.649Z,24.43
2019-01-21T21:37:10.186Z,26.33
2019-01-21T21:39:39.922Z,24.47
2019-01-21T21:42:09.662Z,26.27
2019-01-21T21:44:38.010Z,26.47
2019-01-21T21:47:07.371Z,29.63
2019-01-21T21:49:35.838Z,27.93
2019-01-21T21:52:04.471Z,28.50
2019-01-21T21:54:32.695Z,29.33
2019-01-21T21:57:00.997Z,33.33
2019-01-21T21:59:30.338Z,30.47
2019-01-21T22:01:58.840Z,29.07
2019-01-21T22:04:27.031Z,32.63
2019-01-21T22:06:56.775Z,31.40
2019-01-21T22:09:25.361Z,30.97
2019-01-21T22:11:53.719Z,31.93
2019-01-21T22:14:22.166Z,30.50
2019-01-21T22:16:51.684Z,31.20
2019-01-21T22:19:20.062Z,29.17
2019-01-21T22:21:48.404Z,31.60
2019-01-21T22:24:16.942Z,29.93
2019-01-21T22:26:45.549Z,29.50
2019-01-21T22:29:14.145Z,28.27
2019-01-21T22:31:42.833Z,28.50
2019-01-21T22:34:11.503Z,27.43
2019-01-21T22:36:40.060Z,26.13
2019-01-21T22:39:08.992Z,28.60
2019-01-21T22:41:38.491Z,31.70
2019-01-21T22:44:07.468Z,32.00
2019-01-21T22:46:37.511Z,30.67
2019-01-21T22:49:06.421Z,33.13
2019-01-21T22:51:34.641Z,38.63
2019-01-21T22:54:03.318Z,35.07
2019-01-21T22:56:32.018Z,36.27
2019-01-21T22:59:00.340Z,34.27
2019-01-21T23:01:31.820Z,32.93
2019-01-21T23:04:02.064Z,29.03
2019-01-21T23:06:30.499Z,25.53
2019-01-21T23:08:58.690Z,27.93
2019-01-21T23:11:27.268Z,28.60
2019-01-21T23:13:56.683Z,26.97
2019-01-21T23:16:25.115Z,24.73
2019-01-21T23:18:53.735Z,25.30
2019-01-21T23:21:22.049Z,26.77
2019-01-21T23:23:50.648Z,25.33
2019-01-21T23:26:19.038Z,25.17
2019-01-21T23:28:48.083Z,27.43
2019-01-21T23:31:16.623Z,24.47
2019-01-21T23:33:45.045Z,23.80
2019-01-21T23:36:13.746Z,22.43
2019-01-21T23:38:42.243Z,23.37
2019-01-21T23:41:11.920Z,25.10
2019-01-21T23:43:41.255Z,25.23
2019-01-21T23:46:10.059Z,23.87
2019-01-21T23:48:38.483Z,23.57
2019-01-21T23:51:07.226Z,23.70
2019-01-21T23:53:35.873Z,21.37
2019-01-21T23:56:05.036Z,23.27
2019-01-21T23:58:33.410Z,27.03
